Time;durP1;ratioP1;P1;durP2;ratioP2;P2;SDS_P1;SDS_P2;PMS_P1;PMS_P2;Temp;Humidity;BMP_temperature;BMP_pressure;BME280_temperature;BME280_humidity;BME280_pressure;Samples;Min_cycle;Max_cycle;Signal;HPM_P1;HPM_P2
2022/12/05 00:00:52;;;;;;;64.93;28.08;;;;;;;;;;5097725;28;20027;-74
2022/12/05 00:03:18;;;;;;;69.63;28.98;;;;;;;;;;5098064;28;20033;-74
2022/12/05 00:05:44;;;;;;;70.35;28.48;;;;;;;;;;5094432;28;20469;-74
2022/12/05 00:08:10;;;;;;;68.00;28.42;;;;;;;;;;5094071;28;20466;-74
2022/12/05 00:10:37;;;;;;;71.72;29.38;;;;;;;;;;5096340;28;20427;-74
2022/12/05 00:13:03;;;;;;;76.35;29.48;;;;;;;;;;5114788;28;20042;-74
2022/12/05 00:15:29;;;;;;;65.72;28.48;;;;;;;;;;5114487;28;20036;-74
2022/12/05 00:17:55;;;;;;;63.22;27.35;;;;;;;;;;5114668;28;20085;-74
2022/12/05 00:20:21;;;;;;;66.85;28.33;;;;;;;;;;5095962;28;20062;-74
2022/12/05 00:22:47;;;;;;;70.85;29.02;;;;;;;;;;5113617;28;20024;-74
2022/12/05 00:25:13;;;;;;;64.40;26.88;;;;;;;;;;5114260;28;20081;-74
2022/12/05 00:27:39;;;;;;;63.38;29.05;;;;;;;;;;5100336;28;20389;-74
2022/12/05 00:30:07;;;;;;;70.50;28.70;;;;;;;;;;5114218;28;20034;-74
2022/12/05 00:32:33;;;;;;;67.95;28.70;;;;;;;;;;5106064;28;20038;-74
2022/12/05 00:34:59;;;;;;;65.57;27.30;;;;;;;;;;5093851;28;20770;-74
2022/12/05 00:37:25;;;;;;;72.45;28.88;;;;;;;;;;5093551;28;20048;-74
2022/12/05 00:39:51;;;;;;;71.13;28.13;;;;;;;;;;5093963;28;20028;-74
2022/12/05 00:42:17;;;;;;;71.68;27.40;;;;;;;;;;5093721;28;20028;-74
2022/12/05 00:44:43;;;;;;;66.78;29.00;;;;;;;;;;5093487;28;20047;-74
2022/12/05 00:47:09;;;;;;;65.03;29.20;;;;;;;;;;5093372;28;20024;-74
2022/12/05 00:49:36;;;;;;;58.53;26.60;;;;;;;;;;5093372;28;20040;-74
2022/12/05 00:52:02;;;;;;;66.35;27.83;;;;;;;;;;5093564;28;20027;-74
2022/12/05 00:54:28;;;;;;;71.53;28.63;;;;;;;;;;5075332;28;20043;-74
2022/12/05 00:56:55;;;;;;;63.33;27.05;;;;;;;;;;5075145;28;20068;-74
2022/12/05 00:59:21;;;;;;;62.97;26.55;;;;;;;;;;5093168;28;20024;-74
2022/12/05 01:01:48;;;;;;;70.38;27.80;;;;;;;;;;5084154;28;20020;-74
2022/12/05 01:04:15;;;;;;;68.57;27.73;;;;;;;;;;5101176;28;20124;-74
2022/12/05 01:06:42;;;;;;;69.93;29.02;;;;;;;;;;5098709;28;20038;-74
2022/12/05 01:09:08;;;;;;;69.43;28.75;;;;;;;;;;5113430;28;20055;-75
2022/12/05 01:11:34;;;;;;;69.43;27.25;;;;;;;;;;5113320;28;20047;-75
2022/12/05 01:14:00;;;;;;;66.53;27.52;;;;;;;;;;5113796;28;20039;-74
2022/12/05 01:16:28;;;;;;;67.75;27.38;;;;;;;;;;5095053;28;20485;-74
2022/12/05 01:18:54;;;;;;;62.42;26.90;;;;;;;;;;5091431;28;20047;-74
2022/12/05 01:21:20;;;;;;;68.43;27.92;;;;;;;;;;5082337;28;20032;-74
2022/12/05 01:23:47;;;;;;;67.82;27.58;;;;;;;;;;5113319;28;20078;-74
2022/12/05 01:26:14;;;;;;;66.95;28.23;;;;;;;;;;5093048;28;20024;-74
2022/12/05 01:28:40;;;;;;;66.63;27.20;;;;;;;;;;5101401;28;20019;-74
2022/12/05 01:31:08;;;;;;;69.88;28.30;;;;;;;;;;5113103;28;20026;-74
2022/12/05 01:33:34;;;;;;;67.78;28.05;;;;;;;;;;5097147;28;20407;-74
2022/12/05 01:36:01;;;;;;;70.40;29.63;;;;;;;;;;5092943;28;20442;-74
2022/12/05 01:38:27;;;;;;;74.72;29.27;;;;;;;;;;5074568;28;20529;-74
2022/12/05 01:41:00;;;;;;;68.40;27.70;;;;;;;;;;5092613;28;20405;-74
2022/12/05 01:43:26;;;;;;;66.65;28.63;;;;;;;;;;5073895;28;20056;-74
2022/12/05 01:45:52;;;;;;;69.30;27.88;;;;;;;;;;5092494;28;20024;-74
2022/12/05 01:48:27;;;;;;;71.03;28.15;;;;;;;;;;5074140;28;20028;-74
2022/12/05 01:50:54;;;;;;;71.97;28.23;;;;;;;;;;5092549;28;20028;-74
2022/12/05 01:53:20;;;;;;;68.07;27.88;;;;;;;;;;5092446;28;20031;-74
2022/12/05 01:55:47;;;;;;;66.38;27.52;;;;;;;;;;5074065;28;20028;-74
2022/12/05 01:58:14;;;;;;;70.60;28.08;;;;;;;;;;5090760;28;20069;-74
2022/12/05 02:00:41;;;;;;;70.10;28.45;;;;;;;;;;5095303;28;20028;-74
2022/12/05 02:03:09;;;;;;;70.88;28.50;;;;;;;;;;5101984;28;20053;-74
2022/12/05 02:05:36;;;;;;;71.13;28.05;;;;;;;;;;5076250;28;20020;-74
2022/12/05 02:08:09;;;;;;;63.35;27.60;;;;;;;;;;5109079;28;20056;-74
2022/12/05 02:10:40;;;;;;;68.10;27.08;;;;;;;;;;5112531;28;20026;-74
2022/12/05 02:13:32;;;;;;;61.50;26.23;;;;;;;;;;5112390;28;20035;-74
2022/12/05 02:16:01;;;;;;;65.43;26.98;;;;;;;;;;5071315;28;20832;-74
2022/12/05 02:18:38;;;;;;;62.83;26.88;;;;;;;;;;5109536;28;20032;-74
2022/12/05 02:21:13;;;;;;;64.65;27.38;;;;;;;;;;5097299;28;20115;-74
2022/12/05 02:23:39;;;;;;;63.40;28.00;;;;;;;;;;5112269;28;20099;-74
2022/12/05 02:26:05;;;;;;;68.75;27.75;;;;;;;;;;5110232;28;20020;-74
2022/12/05 02:28:48;;;;;;;62.10;26.73;;;;;;;;;;5100551;28;20392;-74
2022/12/05 02:31:36;;;;;;;64.88;27.00;;;;;;;;;;5112115;28;20027;-74
2022/12/05 02:34:14;;;;;;;65.00;27.90;;;;;;;;;;5073666;28;20073;-74
2022/12/05 02:36:46;;;;;;;62.20;26.58;;;;;;;;;;5073454;28;20504;-74
2022/12/05 02:39:12;;;;;;;;;;;;;;;;;;5091964;28;20028;-74
2022/12/05 02:41:50;;;;;;;61.30;25.88;;;;;;;;;;5091696;28;19915;-74
2022/12/05 02:44:48;;;;;;;68.57;27.60;;;;;;;;;;5091124;28;20020;-73
2022/12/05 02:47:16;;;;;;;65.65;27.48;;;;;;;;;;5057433;28;20040;-74
2022/12/05 02:49:42;;;;;;;66.35;27.40;;;;;;;;;;5091579;28;20126;-74
2022/12/05 02:52:12;;;;;;;69.70;27.08;;;;;;;;;;5073437;28;20028;-74
2022/12/05 02:54:41;;;;;;;64.03;26.33;;;;;;;;;;5091598;28;20028;-74
2022/12/05 02:57:08;;;;;;;65.30;27.45;;;;;;;;;;5115262;28;20045;-74
2022/12/05 02:59:34;;;;;;;69.53;28.73;;;;;;;;;;5116030;28;20103;-74
2022/12/05 03:02:00;;;;;;;63.70;26.55;;;;;;;;;;5102013;28;20138;-74
2022/12/05 03:04:27;;;;;;;65.85;28.00;;;;;;;;;;5093167;28;20491;-74
2022/12/05 03:06:56;;;;;;;62.20;26.13;;;;;;;;;;5103434;28;20031;-74
2022/12/05 03:09:43;;;;;;;61.85;27.13;;;;;;;;;;5097734;28;20430;-74
2022/12/05 03:12:12;;;;;;;66.18;26.90;;;;;;;;;;5115920;28;20028;-75
2022/12/05 03:14:46;;;;;;;63.58;26.45;;;;;;;;;;5115737;28;20142;-74
2022/12/05 03:17:17;;;;;;;63.20;26.65;;;;;;;;;;5115572;28;20027;-74
2022/12/05 03:19:49;;;;;;;56.53;24.58;;;;;;;;;;5102030;28;20174;-74
2022/12/05 03:22:19;;;;;;;63.33;26.55;;;;;;;;;;5110854;28;20041;-74
2022/12/05 03:24:45;;;;;;;65.05;26.25;;;;;;;;;;5115693;28;20028;-74
2022/12/05 03:27:37;;;;;;;63.75;27.45;;;;;;;;;;5104949;28;20056;-74
2022/12/05 03:30:05;;;;;;;69.88;27.77;;;;;;;;;;5095544;28;20219;-74
2022/12/05 03:33:07;;;;;;;66.80;27.10;;;;;;;;;;5102038;28;20019;-74
2022/12/05 03:35:36;;;;;;;57.45;25.95;;;;;;;;;;5052069;28;20032;-74
2022/12/05 03:38:21;;;;;;;65.90;25.67;;;;;;;;;;5086102;28;20035;-74
2022/12/05 03:40:49;;;;;;;63.00;26.02;;;;;;;;;;5115378;28;20019;-74
2022/12/05 03:43:15;;;;;;;58.28;25.40;;;;;;;;;;5115320;28;20028;-74
2022/12/05 03:45:51;;;;;;;59.80;24.30;;;;;;;;;;5081370;28;20393;-74
2022/12/05 03:48:38;;;;;;;58.80;25.48;;;;;;;;;;5076507;28;20032;-74
2022/12/05 03:51:07;;;;;;;59.33;23.88;;;;;;;;;;5094708;28;20024;-74
2022/12/05 03:53:35;;;;;;;59.17;25.92;;;;;;;;;;5094494;28;20066;-74
2022/12/05 03:56:05;;;;;;;63.38;25.17;;;;;;;;;;5094585;28;20387;-74
2022/12/05 03:58:35;;;;;;;55.45;24.50;;;;;;;;;;5094283;28;20411;-74
2022/12/05 04:01:03;;;;;;;61.83;25.30;;;;;;;;;;5097665;28;20028;-74
2022/12/05 04:03:41;;;;;;;63.22;25.13;;;;;;;;;;5108057;28;20098;-74
2022/12/05 04:06:10;;;;;;;59.67;25.10;;;;;;;;;;5101625;28;20019;-74
2022/12/05 04:08:37;;;;;;;59.17;25.65;;;;;;;;;;5114913;28;20099;-74
2022/12/05 04:11:08;;;;;;;50.40;23.20;;;;;;;;;;5096316;28;20027;-74
2022/12/05 04:13:40;;;;;;;57.90;25.55;;;;;;;;;;5114572;28;20081;-74
2022/12/05 04:18:59;;;;;;;57.65;25.15;;;;;;;;;;5107581;28;20026;-74
2022/12/05 04:21:37;;;;;;;62.20;24.95;;;;;;;;;;5103081;28;20040;-74
2022/12/05 04:26:53;;;;;;;57.58;23.83;;;;;;;;;;5107573;28;20762;-74
2022/12/05 04:29:25;;;;;;;55.40;24.52;;;;;;;;;;5090124;28;20023;-74
2022/12/05 04:31:56;;;;;;;62.88;25.25;;;;;;;;;;5112482;28;20035;-74
2022/12/05 04:34:23;;;;;;;59.67;25.65;;;;;;;;;;5093799;28;20020;-74
2022/12/05 04:36:59;;;;;;;54.85;24.35;;;;;;;;;;5075441;28;20074;-74
2022/12/05 04:39:40;;;;;;;53.33;24.63;;;;;;;;;;5093900;28;20085;-74
2022/12/05 04:42:09;;;;;;;60.33;25.48;;;;;;;;;;5093444;28;20070;-74
2022/12/05 04:44:39;;;;;;;58.15;24.92;;;;;;;;;;5093412;28;20020;-74
2022/12/05 04:47:08;;;;;;;63.55;25.73;;;;;;;;;;5075476;28;20587;-74
2022/12/05 04:49:35;;;;;;;57.63;24.98;;;;;;;;;;5093450;28;20378;-74
2022/12/05 04:52:03;;;;;;;61.45;24.52;;;;;;;;;;5075624;28;20045;-74
2022/12/05 04:54:50;;;;;;;57.13;23.95;;;;;;;;;;5093570;28;20024;-74
2022/12/05 04:57:19;;;;;;;57.20;24.35;;;;;;;;;;5093744;28;20028;-74
2022/12/05 04:59:45;;;;;;;61.17;24.38;;;;;;;;;;5093117;28;20464;-74
2022/12/05 05:02:13;;;;;;;56.85;24.67;;;;;;;;;;5099184;28;20031;-74
2022/12/05 05:04:44;;;;;;;54.28;23.45;;;;;;;;;;5113558;28;20098;-74
2022/12/05 05:07:11;;;;;;;58.38;24.80;;;;;;;;;;5086103;28;20035;-74
2022/12/05 05:09:37;;;;;;;54.40;24.75;;;;;;;;;;5113744;28;20027;-74
2022/12/05 05:12:04;;;;;;;58.13;24.25;;;;;;;;;;5113326;28;20437;-74
2022/12/05 05:14:30;;;;;;;57.25;23.88;;;;;;;;;;5113452;28;20032;-74
2022/12/05 05:16:56;;;;;;;62.22;25.25;;;;;;;;;;5113370;28;20473;-74
2022/12/05 05:19:22;;;;;;;56.70;23.73;;;;;;;;;;5101618;28;20020;-74
2022/12/05 05:21:48;;;;;;;59.67;25.35;;;;;;;;;;5104866;28;20073;-74
2022/12/05 05:24:14;;;;;;;64.70;25.13;;;;;;;;;;5112986;28;20023;-74
2022/12/05 05:26:42;;;;;;;51.40;23.00;;;;;;;;;;5089485;28;20082;-74
2022/12/05 05:29:08;;;;;;;56.30;23.98;;;;;;;;;;5105771;28;20016;-74
2022/12/05 05:31:35;;;;;;;58.33;24.73;;;;;;;;;;5113278;28;20105;-74
2022/12/05 05:34:01;;;;;;;56.55;25.33;;;;;;;;;;5074161;28;20055;-74
2022/12/05 05:36:28;;;;;;;55.75;24.77;;;;;;;;;;5092690;28;20424;-74
2022/12/05 05:38:55;;;;;;;56.28;24.52;;;;;;;;;;5092374;28;20024;-74
2022/12/05 05:41:22;;;;;;;58.15;25.75;;;;;;;;;;5074321;28;20093;-74
2022/12/05 05:43:49;;;;;;;53.45;24.23;;;;;;;;;;5092233;28;20111;-74
2022/12/05 05:46:18;;;;;;;57.00;24.65;;;;;;;;;;5092822;28;20019;-76
2022/12/05 05:48:44;;;;;;;56.45;23.50;;;;;;;;;;5075383;28;20445;-76
2022/12/05 05:51:11;;;;;;;55.70;23.88;;;;;;;;;;5074819;28;20381;-76
2022/12/05 05:53:37;;;;;;;59.08;25.25;;;;;;;;;;5074535;28;20028;-76
2022/12/05 05:56:04;;;;;;;51.95;23.90;;;;;;;;;;5092908;28;20098;-75
2022/12/05 05:58:30;;;;;;;51.55;24.63;;;;;;;;;;5092841;28;20101;-76
2022/12/05 06:01:02;;;;;;;56.65;23.58;;;;;;;;;;5089358;28;20488;-76
2022/12/05 06:03:28;;;;;;;53.10;24.38;;;;;;;;;;5092798;28;20027;-76
2022/12/05 06:05:58;;;;;;;57.63;24.95;;;;;;;;;;5097248;28;20019;-76
2022/12/05 06:08:24;;;;;;;53.92;23.33;;;;;;;;;;5092494;28;20027;-76
2022/12/05 06:10:50;;;;;;;56.53;23.48;;;;;;;;;;5074478;28;20032;-75
2022/12/05 06:13:16;;;;;;;53.10;23.88;;;;;;;;;;5092649;28;20039;-76
2022/12/05 06:15:42;;;;;;;62.15;24.73;;;;;;;;;;5074754;28;20024;-76
2022/12/05 06:18:08;;;;;;;56.63;24.55;;;;;;;;;;5074045;28;20039;-76
2022/12/05 06:20:34;;;;;;;59.53;24.17;;;;;;;;;;5094178;28;20081;-76
2022/12/05 06:23:00;;;;;;;57.60;25.25;;;;;;;;;;5113235;28;20027;-76
2022/12/05 06:25:26;;;;;;;49.67;23.02;;;;;;;;;;5113063;28;20075;-76
2022/12/05 06:27:52;;;;;;;51.05;23.42;;;;;;;;;;5086163;28;20028;-76
2022/12/05 06:30:18;;;;;;;57.03;24.77;;;;;;;;;;5073175;28;20032;-76
2022/12/05 06:32:44;;;;;;;52.35;23.83;;;;;;;;;;5074170;28;20028;-76
2022/12/05 06:35:14;;;;;;;55.83;24.05;;;;;;;;;;5073923;28;20085;-76
2022/12/05 06:37:44;;;;;;;57.00;24.83;;;;;;;;;;5074144;28;20062;-76
2022/12/05 06:40:11;;;;;;;54.47;23.15;;;;;;;;;;5091823;28;20038;-76
2022/12/05 06:42:37;;;;;;;56.40;23.45;;;;;;;;;;5073518;28;20050;-76
2022/12/05 06:45:03;;;;;;;50.80;23.33;;;;;;;;;;5084494;28;20024;-76
2022/12/05 06:47:29;;;;;;;56.25;23.17;;;;;;;;;;5111737;28;20070;-76
2022/12/05 06:49:59;;;;;;;62.55;24.92;;;;;;;;;;5094016;28;20027;-76
2022/12/05 06:52:25;;;;;;;54.92;23.90;;;;;;;;;;5111554;28;20031;-83
2022/12/05 06:54:51;;;;;;;52.70;23.92;;;;;;;;;;5076823;28;20036;-77
2022/12/05 06:57:17;;;;;;;58.83;25.35;;;;;;;;;;5094218;28;20491;-77
2022/12/05 06:59:43;;;;;;;54.17;23.98;;;;;;;;;;5093137;28;20043;-76
2022/12/05 07:02:11;;;;;;;58.88;24.42;;;;;;;;;;5073068;28;20040;-77
2022/12/05 07:04:37;;;;;;;59.97;24.85;;;;;;;;;;5074016;28;20074;-77
2022/12/05 07:07:03;;;;;;;57.45;25.88;;;;;;;;;;5092436;28;20020;-77
2022/12/05 07:09:44;;;;;;;54.90;23.92;;;;;;;;;;5091931;28;20126;-77
2022/12/05 07:12:12;;;;;;;52.05;23.10;;;;;;;;;;5074311;28;20032;-77
2022/12/05 07:14:38;;;;;;;57.75;25.75;;;;;;;;;;5092192;28;20540;-77
2022/12/05 07:17:04;;;;;;;51.90;22.55;;;;;;;;;;5074308;28;20028;-77
2022/12/05 07:19:30;;;;;;;52.70;23.45;;;;;;;;;;5112057;28;20027;-77
2022/12/05 07:21:56;;;;;;;60.00;25.55;;;;;;;;;;5112282;28;20461;-77
2022/12/05 07:24:22;;;;;;;54.67;24.48;;;;;;;;;;5112919;28;20020;-77
2022/12/05 07:26:48;;;;;;;47.22;22.63;;;;;;;;;;5101718;28;20050;-77
2022/12/05 07:29:14;;;;;;;57.38;24.35;;;;;;;;;;5106528;28;20031;-77
2022/12/05 07:31:40;;;;;;;57.40;24.83;;;;;;;;;;5094240;28;20027;-76
2022/12/05 07:34:06;;;;;;;53.13;23.55;;;;;;;;;;5113135;28;20529;-77
2022/12/05 07:36:32;;;;;;;54.17;24.08;;;;;;;;;;5094481;28;20338;-77
2022/12/05 07:38:59;;;;;;;54.42;22.98;;;;;;;;;;5112813;28;20401;-77
2022/12/05 07:41:26;;;;;;;56.65;23.55;;;;;;;;;;5113361;28;20023;-77
2022/12/05 07:43:52;;;;;;;59.28;23.75;;;;;;;;;;5098388;28;20027;-77
2022/12/05 07:46:19;;;;;;;56.95;24.08;;;;;;;;;;5095609;28;20479;-77
2022/12/05 07:48:45;;;;;;;54.28;23.23;;;;;;;;;;5081132;28;20062;-77
2022/12/05 07:51:11;;;;;;;50.58;22.13;;;;;;;;;;5133416;27;20026;-77
2022/12/05 07:53:38;;;;;;;58.58;25.27;;;;;;;;;;5136953;27;20023;-77
2022/12/05 07:56:06;;;;;;;51.60;23.10;;;;;;;;;;5129917;27;20027;-77
2022/12/05 07:58:32;;;;;;;55.17;23.23;;;;;;;;;;5097312;28;20032;-77
2022/12/05 08:01:05;;;;;;;57.78;24.27;;;;;;;;;;5092137;28;20028;-77
2022/12/05 08:03:31;;;;;;;57.13;24.33;;;;;;;;;;5092629;28;20020;-77
2022/12/05 08:06:02;;;;;;;62.50;24.35;;;;;;;;;;5079510;28;20024;-77
2022/12/05 08:08:28;;;;;;;55.10;24.40;;;;;;;;;;5077098;28;20465;-77
2022/12/05 08:10:54;;;;;;;56.25;23.60;;;;;;;;;;5077332;28;20032;-77
2022/12/05 08:13:20;;;;;;;61.78;25.85;;;;;;;;;;5091307;28;20027;-77
2022/12/05 08:15:46;;;;;;;53.67;22.98;;;;;;;;;;5079690;28;20028;-77
2022/12/05 08:18:12;;;;;;;60.53;23.48;;;;;;;;;;5099143;27;20050;-77
2022/12/05 08:20:38;;;;;;;61.55;23.23;;;;;;;;;;5114927;27;20044;-78
2022/12/05 08:23:04;;;;;;;56.10;22.55;;;;;;;;;;5080546;28;20036;-77
2022/12/05 08:25:30;;;;;;;56.40;23.38;;;;;;;;;;5115071;28;20034;-77
2022/12/05 08:27:56;;;;;;;56.20;23.48;;;;;;;;;;5080041;28;20031;-77
2022/12/05 08:30:22;;;;;;;56.08;22.00;;;;;;;;;;5097603;28;20031;-77
2022/12/05 08:32:48;;;;;;;57.28;24.25;;;;;;;;;;5097434;28;20024;-77
2022/12/05 08:35:15;;;;;;;45.65;21.88;;;;;;;;;;5080533;28;20028;-77
2022/12/05 08:37:41;;;;;;;54.10;23.23;;;;;;;;;;5080506;28;20043;-77
2022/12/05 08:40:07;;;;;;;56.38;22.90;;;;;;;;;;5097167;28;20096;-77
2022/12/05 08:42:33;;;;;;;55.50;23.00;;;;;;;;;;5080452;28;20027;-77
2022/12/05 08:44:59;;;;;;;56.75;23.83;;;;;;;;;;5115778;28;20126;-77
2022/12/05 08:47:26;;;;;;;48.58;22.10;;;;;;;;;;5097732;28;20085;-77
2022/12/05 08:49:52;;;;;;;58.65;23.27;;;;;;;;;;5097239;28;20385;-78
2022/12/05 08:52:18;;;;;;;59.30;24.38;;;;;;;;;;5080546;28;20398;-81
2022/12/05 08:54:44;;;;;;;54.55;23.25;;;;;;;;;;5094269;28;20024;-77
2022/12/05 08:57:10;;;;;;;60.20;24.52;;;;;;;;;;5060083;28;20458;-78
2022/12/05 08:59:36;;;;;;;54.25;23.38;;;;;;;;;;5060442;28;20036;-77
2022/12/05 09:02:02;;;;;;;53.97;22.77;;;;;;;;;;5114332;28;20032;-77
2022/12/05 09:04:28;;;;;;;61.92;23.92;;;;;;;;;;5097141;28;20023;-77
2022/12/05 09:06:54;;;;;;;54.10;23.45;;;;;;;;;;5115132;28;20418;-77
2022/12/05 09:09:20;;;;;;;58.03;22.70;;;;;;;;;;5096934;28;20470;-77
2022/12/05 09:11:49;;;;;;;56.88;23.98;;;;;;;;;;5079957;28;20458;-77
2022/12/05 09:14:16;;;;;;;57.20;22.75;;;;;;;;;;5080217;28;20036;-77
2022/12/05 09:16:43;;;;;;;54.38;23.75;;;;;;;;;;5114255;28;20026;-77
2022/12/05 09:19:11;;;;;;;53.95;22.88;;;;;;;;;;5094865;28;20046;-77
2022/12/05 09:21:37;;;;;;;59.40;23.05;;;;;;;;;;5113627;28;20040;-78
2022/12/05 09:24:03;;;;;;;54.25;22.73;;;;;;;;;;5113669;28;20245;-77
2022/12/05 09:26:29;;;;;;;52.58;23.30;;;;;;;;;;5105301;28;20040;-78
2022/12/05 09:28:55;;;;;;;55.13;23.30;;;;;;;;;;5093356;28;20046;-78
2022/12/05 09:31:24;;;;;;;55.22;23.15;;;;;;;;;;5075047;28;20020;-78
2022/12/05 09:33:50;;;;;;;62.53;25.20;;;;;;;;;;5093267;28;20031;-78
2022/12/05 09:36:18;;;;;;;48.78;22.08;;;;;;;;;;5075518;28;20028;-78
2022/12/05 09:38:44;;;;;;;53.63;22.33;;;;;;;;;;5075045;28;20085;-78
2022/12/05 09:44:26;;;;;;;48.58;22.52;;;;;;;;;;5098465;28;20035;-78
2022/12/05 09:46:57;;;;;;;58.80;23.08;;;;;;;;;;5095876;28;20519;-78
2022/12/05 09:49:24;;;;;;;51.92;22.40;;;;;;;;;;5114193;28;20028;-78
2022/12/05 09:51:50;;;;;;;62.80;24.48;;;;;;;;;;5095727;28;20035;-78
2022/12/05 09:54:17;;;;;;;57.97;24.13;;;;;;;;;;5095754;28;20032;-78
2022/12/05 09:56:43;;;;;;;56.53;23.75;;;;;;;;;;5060339;28;20031;-78
2022/12/05 09:59:19;;;;;;;50.58;21.33;;;;;;;;;;5093640;28;20094;-79
2022/12/05 10:02:06;;;;;;;52.72;21.83;;;;;;;;;;5105409;28;20037;-78
2022/12/05 10:04:35;;;;;;;53.83;23.00;;;;;;;;;;5113512;28;20019;-78
2022/12/05 10:07:06;;;;;;;51.45;22.70;;;;;;;;;;5113702;28;20038;-78
2022/12/05 10:09:50;;;;;;;56.20;22.90;;;;;;;;;;5095266;28;20028;-78
2022/12/05 10:12:35;;;;;;;50.63;21.60;;;;;;;;;;5095059;28;20512;-78
2022/12/05 10:15:14;;;;;;;48.72;21.65;;;;;;;;;;5095161;28;20020;-78
2022/12/05 10:17:42;;;;;;;46.78;21.65;;;;;;;;;;5113304;28;20112;-78
2022/12/05 10:20:18;;;;;;;47.55;21.08;;;;;;;;;;5094498;28;20369;-78
2022/12/05 10:22:47;;;;;;;47.38;20.45;;;;;;;;;;5075051;28;20024;-78
2022/12/05 10:25:14;;;;;;;45.55;20.27;;;;;;;;;;5075004;28;20028;-78
2022/12/05 10:27:49;;;;;;;42.20;19.73;;;;;;;;;;5100090;28;20034;-78
2022/12/05 10:30:21;;;;;;;43.63;19.77;;;;;;;;;;5113130;28;20052;-78
2022/12/05 10:33:01;;;;;;;46.58;20.63;;;;;;;;;;5095040;28;20023;-78
2022/12/05 10:35:35;;;;;;;49.75;20.27;;;;;;;;;;5113427;28;20480;-78
2022/12/05 10:38:22;;;;;;;39.65;19.30;;;;;;;;;;5094663;28;20118;-78
2022/12/05 10:40:54;;;;;;;42.47;19.40;;;;;;;;;;5094968;28;20103;-78
2022/12/05 10:43:30;;;;;;;39.35;19.58;;;;;;;;;;5094773;28;20023;-78
2022/12/05 10:45:57;;;;;;;44.33;20.48;;;;;;;;;;5094972;28;20027;-78
2022/12/05 10:48:23;;;;;;;45.38;20.08;;;;;;;;;;5094971;28;20035;-78
2022/12/05 10:50:51;;;;;;;41.88;19.45;;;;;;;;;;5094687;28;20058;-77
2022/12/05 10:53:19;;;;;;;44.72;19.38;;;;;;;;;;5094756;28;20457;-78
2022/12/05 10:55:46;;;;;;;42.72;19.33;;;;;;;;;;5102068;28;20028;-78
2022/12/05 10:58:12;;;;;;;44.22;19.55;;;;;;;;;;5074547;28;20069;-78
2022/12/05 11:00:43;;;;;;;43.40;19.30;;;;;;;;;;5095283;28;21428;-79
2022/12/05 11:03:21;;;;;;;45.08;19.23;;;;;;;;;;5113210;28;20570;-78
2022/12/05 11:05:49;;;;;;;43.78;18.88;;;;;;;;;;5094975;28;20119;-78
2022/12/05 11:08:25;;;;;;;33.95;17.55;;;;;;;;;;5113032;28;20034;-78
2022/12/05 11:11:02;;;;;;;42.70;18.73;;;;;;;;;;5113125;28;20039;-78
2022/12/05 11:13:28;;;;;;;35.63;18.33;;;;;;;;;;5094928;28;20028;-78
2022/12/05 11:15:54;;;;;;;43.15;18.70;;;;;;;;;;5094671;28;20080;-78
2022/12/05 11:18:23;;;;;;;43.08;19.23;;;;;;;;;;5112858;28;20067;-78
2022/12/05 11:20:49;;;;;;;40.35;18.63;;;;;;;;;;5078273;28;20039;-78
2022/12/05 11:23:17;;;;;;;49.83;20.83;;;;;;;;;;5078497;28;20031;-78
2022/12/05 11:25:43;;;;;;;46.95;19.65;;;;;;;;;;5096472;28;20084;-78
2022/12/05 11:28:16;;;;;;;51.10;20.52;;;;;;;;;;5125467;27;20032;-78
2022/12/05 11:30:42;;;;;;;;;;;;;;;;;;5117295;28;20028;-78
2022/12/05 11:33:18;;;;;;;51.90;22.45;;;;;;;;;;5098479;28;20306;-78
2022/12/05 11:35:44;;;;;;;65.75;24.95;;;;;;;;;;5098645;28;20435;-78
2022/12/05 11:38:11;;;;;;;57.55;24.00;;;;;;;;;;5098537;28;20040;-78
2022/12/05 11:41:01;;;;;;;44.92;21.65;;;;;;;;;;5116835;28;20023;-78
2022/12/05 11:43:39;;;;;;;38.05;18.85;;;;;;;;;;5084819;28;20047;-79
2022/12/05 11:46:11;;;;;;;169.05;55.38;;;;;;;;;;5092756;28;20043;-78
2022/12/05 11:48:49;;;;;;;55.63;24.00;;;;;;;;;;5116149;28;20084;-78
2022/12/05 11:51:22;;;;;;;39.88;16.95;;;;;;;;;;5098204;28;20036;-78
2022/12/05 11:54:03;;;;;;;31.60;15.35;;;;;;;;;;5097442;28;20080;-78
2022/12/05 11:56:44;;;;;;;31.15;15.70;;;;;;;;;;5095513;28;20032;-78
2022/12/05 11:59:23;;;;;;;31.60;16.42;;;;;;;;;;5116447;28;20016;-78
2022/12/05 12:02:06;;;;;;;27.38;13.70;;;;;;;;;;5114666;28;20353;-78
2022/12/05 12:04:38;;;;;;;22.23;12.27;;;;;;;;;;5115927;28;20027;-78
2022/12/05 12:07:23;;;;;;;24.52;12.13;;;;;;;;;;5115931;28;20031;-79
2022/12/05 12:09:59;;;;;;;21.20;11.13;;;;;;;;;;5077355;28;20032;-78
2022/12/05 12:12:33;;;;;;;19.50;10.35;;;;;;;;;;5115437;28;20778;-78
2022/12/05 12:15:06;;;;;;;17.98;9.77;;;;;;;;;;5098174;28;20032;-78
2022/12/05 12:17:44;;;;;;;20.27;9.88;;;;;;;;;;5115843;28;20065;-79
2022/12/05 12:20:22;;;;;;;15.35;8.95;;;;;;;;;;5097592;28;20028;-78
2022/12/05 12:22:54;;;;;;;18.00;9.52;;;;;;;;;;5115850;28;20389;-78
2022/12/05 12:25:20;;;;;;;26.70;13.32;;;;;;;;;;5115560;28;20016;-78
2022/12/05 12:27:53;;;;;;;17.90;10.05;;;;;;;;;;5112472;28;20035;-78
2022/12/05 12:30:19;;;;;;;17.08;8.93;;;;;;;;;;5090410;27;20044;-79
2022/12/05 12:32:54;;;;;;;8.93;5.68;;;;;;;;;;5136215;27;20035;-79
2022/12/05 12:35:20;;;;;;;9.32;5.30;;;;;;;;;;5117860;27;20054;-79
2022/12/05 12:38:07;;;;;;;12.38;5.80;;;;;;;;;;5136339;27;20027;-79
2022/12/05 12:40:46;;;;;;;10.55;5.78;;;;;;;;;;5095313;28;20020;-78
2022/12/05 12:43:18;;;;;;;12.00;6.10;;;;;;;;;;5089649;28;20377;-78
2022/12/05 12:46:01;;;;;;;12.48;5.78;;;;;;;;;;5097821;28;20062;-78
2022/12/05 12:48:46;;;;;;;8.60;5.45;;;;;;;;;;5119597;27;20393;-78
2022/12/05 12:51:13;;;;;;;12.23;5.45;;;;;;;;;;5115661;28;20019;-78
2022/12/05 12:53:57;;;;;;;7.68;4.65;;;;;;;;;;5097123;28;20019;-79
2022/12/05 12:56:26;;;;;;;11.02;4.97;;;;;;;;;;5098459;28;20527;-79
2022/12/05 12:59:08;;;;;;;9.75;5.30;;;;;;;;;;5094815;28;20423;-78
2022/12/05 13:01:41;;;;;;;11.10;6.13;;;;;;;;;;5087475;28;20095;-78
2022/12/05 13:04:11;;;;;;;9.75;5.18;;;;;;;;;;5094750;28;20035;-78
2022/12/05 13:06:41;;;;;;;8.95;4.43;;;;;;;;;;5102964;28;20019;-79
2022/12/05 13:09:11;;;;;;;9.63;5.50;;;;;;;;;;5096683;28;20027;-78
2022/12/05 13:11:38;;;;;;;7.15;4.38;;;;;;;;;;5115091;28;20495;-79
2022/12/05 13:14:06;;;;;;;7.82;4.53;;;;;;;;;;5096985;28;20482;-78
2022/12/05 13:16:34;;;;;;;9.00;3.92;;;;;;;;;;5096865;28;20401;-78
2022/12/05 13:19:02;;;;;;;5.20;3.58;;;;;;;;;;5096572;28;20028;-79
2022/12/05 13:21:28;;;;;;;7.63;4.57;;;;;;;;;;5095557;28;20039;-78
2022/12/05 13:24:02;;;;;;;9.18;5.43;;;;;;;;;;5096594;28;20385;-78
2022/12/05 13:26:28;;;;;;;14.68;6.05;;;;;;;;;;5112170;28;20019;-78
2022/12/05 13:28:56;;;;;;;8.75;5.30;;;;;;;;;;5085791;28;20024;-78
2022/12/05 13:31:39;;;;;;;41.33;11.38;;;;;;;;;;5094343;28;20031;-78
2022/12/05 13:34:05;;;;;;;20.98;7.05;;;;;;;;;;5076115;28;20028;-79
2022/12/05 13:42:23;;;;;;;6.53;3.78;;;;;;;;;;5099301;28;20407;-78
2022/12/05 13:45:06;;;;;;;7.68;4.53;;;;;;;;;;5114692;28;20024;-78
2022/12/05 13:47:48;;;;;;;7.20;3.83;;;;;;;;;;5114748;28;20080;-78
2022/12/05 13:50:17;;;;;;;6.47;3.80;;;;;;;;;;5113853;28;20050;-78
2022/12/05 13:52:48;;;;;;;6.95;3.80;;;;;;;;;;5114828;28;20024;-78
2022/12/05 13:55:17;;;;;;;9.65;4.13;;;;;;;;;;5106775;28;20493;-78
2022/12/05 13:57:44;;;;;;;7.28;4.20;;;;;;;;;;5094751;28;20111;-78
2022/12/05 14:00:10;;;;;;;7.80;4.28;;;;;;;;;;5108438;28;20048;-78
2022/12/05 14:02:44;;;;;;;8.95;5.13;;;;;;;;;;5095750;28;20445;-78
2022/12/05 14:05:18;;;;;;;11.07;5.32;;;;;;;;;;5093661;28;20016;-78
2022/12/05 14:07:47;;;;;;;9.52;4.50;;;;;;;;;;5093812;28;20028;-78
2022/12/05 14:10:22;;;;;;;10.82;6.20;;;;;;;;;;5102009;28;20477;-78
2022/12/05 14:12:51;;;;;;;14.73;5.45;;;;;;;;;;5113877;28;20402;-78
2022/12/05 14:15:27;;;;;;;9.93;5.75;;;;;;;;;;5113804;28;20110;-78
2022/12/05 14:18:02;;;;;;;16.02;8.25;;;;;;;;;;5106220;28;20032;-78
2022/12/05 14:20:38;;;;;;;13.07;6.68;;;;;;;;;;5093531;28;20129;-78
2022/12/05 14:23:04;;;;;;;12.88;5.65;;;;;;;;;;5095737;28;20020;-78
2022/12/05 14:25:50;;;;;;;24.08;13.43;;;;;;;;;;5095321;28;20028;-78
2022/12/05 14:28:36;;;;;;;12.13;6.03;;;;;;;;;;5095045;28;20485;-78
2022/12/05 14:31:08;;;;;;;12.40;5.90;;;;;;;;;;5076901;28;20374;-78
2022/12/05 14:33:34;;;;;;;11.20;5.95;;;;;;;;;;5114122;28;20084;-78
2022/12/05 14:36:07;;;;;;;12.07;5.50;;;;;;;;;;5113443;28;20027;-78
2022/12/05 14:38:36;;;;;;;11.43;5.38;;;;;;;;;;5113831;28;20075;-78
2022/12/05 14:41:21;;;;;;;10.85;5.43;;;;;;;;;;5113477;28;20027;-78
2022/12/05 14:43:51;;;;;;;9.73;5.55;;;;;;;;;;5095116;28;20022;-78
2022/12/05 14:46:31;;;;;;;12.07;6.25;;;;;;;;;;5113644;28;20106;-78
2022/12/05 14:48:57;;;;;;;13.18;6.25;;;;;;;;;;5112710;28;20346;-80
2022/12/05 14:51:29;;;;;;;11.75;5.75;;;;;;;;;;5107846;28;20066;-79